createdAt,value
2017-11-16T00:01:16.515Z,-1.90
2017-11-16T00:03:44.032Z,-1.90
2017-11-16T00:06:11.601Z,-1.80
2017-11-16T00:08:39.120Z,-1.80
2017-11-16T00:11:06.631Z,-1.90
2017-11-16T00:13:34.555Z,-2.00
2017-11-16T00:16:02.072Z,-2.10
2017-11-16T00:18:29.595Z,-2.10
2017-11-16T00:20:57.161Z,-2.10
2017-11-16T00:23:24.678Z,-2.10
2017-11-16T00:25:52.759Z,-2.10
2017-11-16T00:28:20.325Z,-2.10
2017-11-16T00:30:47.845Z,-2.20
2017-11-16T00:33:15.360Z,-2.20
2017-11-16T00:35:42.914Z,-2.10
2017-11-16T00:38:10.435Z,-2.10
2017-11-16T00:40:38.184Z,-2.10
2017-11-16T00:43:05.776Z,-2.10
2017-11-16T00:45:33.296Z,-2.10
2017-11-16T00:48:00.807Z,-2.30
2017-11-16T00:50:28.379Z,-2.30
2017-11-16T00:52:55.895Z,-2.40
2017-11-16T00:55:24.177Z,-2.50
2017-11-16T00:57:51.740Z,-2.50
2017-11-16T01:00:19.252Z,-2.50
2017-11-16T01:02:46.767Z,-2.50
2017-11-16T01:05:15.096Z,-2.40
2017-11-16T01:07:42.987Z,-2.40
2017-11-16T01:10:11.088Z,-2.40
2017-11-16T01:12:39.153Z,-2.40
2017-11-16T01:15:07.315Z,-2.40
2017-11-16T01:17:35.632Z,-2.40
2017-11-16T01:20:04.198Z,-2.40
2017-11-16T01:22:32.140Z,-2.40
2017-11-16T01:25:00.423Z,-2.40
2017-11-16T01:27:29.056Z,-2.40
2017-11-16T01:29:56.577Z,-2.40
2017-11-16T01:32:24.196Z,-2.30
2017-11-16T01:34:51.804Z,-2.40
2017-11-16T01:37:19.322Z,-2.40
2017-11-16T01:39:46.836Z,-2.40
2017-11-16T01:42:14.400Z,-2.50
2017-11-16T01:44:41.920Z,-2.60
2017-11-16T01:47:09.863Z,-2.60
2017-11-16T01:49:38.443Z,-2.60
2017-11-16T01:52:05.956Z,-2.60
2017-11-16T01:54:33.951Z,-2.60
2017-11-16T01:57:01.786Z,-2.50
2017-11-16T01:59:29.299Z,-2.30
2017-11-16T02:01:57.113Z,-2.20
2017-11-16T02:04:24.635Z,-2.20
2017-11-16T02:06:54.083Z,-2.20
2017-11-16T02:09:21.671Z,-2.20
2017-11-16T02:11:49.208Z,-2.30
2017-11-16T02:14:16.750Z,-2.40
2017-11-16T02:16:44.291Z,-2.40
2017-11-16T02:19:11.804Z,-2.50
2017-11-16T02:21:39.312Z,-2.50
2017-11-16T02:24:06.879Z,-2.50
2017-11-16T02:26:35.125Z,-2.50
2017-11-16T02:29:02.656Z,-2.40
2017-11-16T02:31:30.279Z,-2.50
2017-11-16T02:33:57.792Z,-2.60
2017-11-16T02:36:25.323Z,-2.60
2017-11-16T02:38:52.918Z,-2.70
2017-11-16T02:41:20.427Z,-2.80
2017-11-16T02:43:47.944Z,-2.70
2017-11-16T02:46:15.524Z,-2.60
2017-11-16T02:48:43.803Z,-2.80
2017-11-16T02:51:11.580Z,-2.80
2017-11-16T02:53:39.157Z,-2.80
2017-11-16T02:56:06.852Z,-2.70
2017-11-16T02:58:34.365Z,-2.70
2017-11-16T03:01:01.933Z,-2.70
2017-11-16T03:03:29.452Z,-2.70
2017-11-16T03:05:56.982Z,-2.60
2017-11-16T03:08:24.532Z,-2.60
2017-11-16T03:10:52.052Z,-2.50
2017-11-16T03:13:19.568Z,-2.50
2017-11-16T03:15:47.127Z,-2.50
2017-11-16T03:18:14.645Z,-2.50
2017-11-16T03:20:42.203Z,-2.50
2017-11-16T03:23:09.712Z,-2.50
2017-11-16T03:25:37.240Z,-2.50
2017-11-16T03:28:05.084Z,-2.40
2017-11-16T03:30:33.326Z,-2.30
2017-11-16T03:33:00.840Z,-2.10
2017-11-16T03:35:28.412Z,-2.00
2017-11-16T03:37:56.104Z,-1.80
2017-11-16T03:40:23.620Z,-1.60
2017-11-16T03:42:52.145Z,-1.40
2017-11-16T03:45:20.096Z,-1.30
2017-11-16T03:47:47.616Z,-1.10
2017-11-16T03:50:15.196Z,-1.00
2017-11-16T03:52:43.294Z,-0.90
2017-11-16T03:55:11.208Z,-0.80
2017-11-16T03:57:38.696Z,-0.80
2017-11-16T04:00:06.620Z,-0.90
2017-11-16T04:02:34.402Z,-0.90
2017-11-16T04:05:01.989Z,-1.00
2017-11-16T04:07:29.510Z,-0.90
2017-11-16T04:09:57.844Z,-0.80
2017-11-16T04:12:25.455Z,-0.80
2017-11-16T04:14:52.967Z,-0.70
2017-11-16T04:17:20.484Z,-0.60
2017-11-16T04:19:48.343Z,-0.60
2017-11-16T04:22:15.856Z,-0.40
2017-11-16T04:24:43.386Z,-0.40
2017-11-16T04:27:12.256Z,-0.50
2017-11-16T04:29:39.813Z,-0.50
2017-11-16T04:32:07.331Z,-0.50
2017-11-16T04:34:34.872Z,-0.40
2017-11-16T04:37:02.901Z,-0.30
2017-11-16T04:39:30.501Z,-0.20
2017-11-16T04:41:58.014Z,-0.10
2017-11-16T04:44:25.528Z,-0.10
2017-11-16T04:46:54.358Z,0.00
2017-11-16T04:49:21.905Z,0.00
2017-11-16T04:51:49.428Z,0.10
2017-11-16T04:54:16.992Z,0.10
2017-11-16T04:56:45.013Z,0.10
2017-11-16T04:59:12.532Z,0.10
2017-11-16T05:01:40.109Z,0.10
2017-11-16T05:04:08.105Z,0.10
2017-11-16T05:06:35.668Z,0.20
2017-11-16T05:09:03.247Z,0.20
2017-11-16T05:11:30.764Z,0.30
2017-11-16T05:13:58.793Z,0.40
2017-11-16T05:16:26.368Z,0.40
2017-11-16T05:18:53.883Z,0.40
2017-11-16T05:21:21.395Z,0.40
2017-11-16T05:23:49.510Z,0.40
2017-11-16T05:26:17.019Z,0.50
2017-11-16T05:28:44.526Z,0.40
2017-11-16T05:31:12.104Z,0.40
2017-11-16T05:33:39.616Z,0.40
2017-11-16T05:36:07.128Z,0.50
2017-11-16T05:38:35.061Z,0.60
2017-11-16T05:41:02.867Z,0.60
2017-11-16T05:43:30.488Z,0.70
2017-11-16T05:45:58.253Z,0.70
2017-11-16T05:48:25.767Z,0.70
2017-11-16T05:50:53.284Z,0.60
2017-11-16T05:53:20.857Z,0.60
2017-11-16T05:55:48.389Z,0.60
2017-11-16T05:58:15.912Z,0.60
2017-11-16T06:00:43.480Z,0.70
2017-11-16T06:03:11.012Z,0.70
2017-11-16T06:05:39.614Z,0.70
2017-11-16T06:08:07.208Z,0.60
2017-11-16T06:10:34.727Z,0.70
2017-11-16T06:13:02.242Z,0.80
2017-11-16T06:15:29.791Z,0.80
2017-11-16T06:17:58.104Z,0.80
2017-11-16T06:20:25.640Z,0.80
2017-11-16T06:22:53.204Z,0.70
2017-11-16T06:25:22.108Z,0.50
2017-11-16T06:27:49.716Z,0.50
2017-11-16T06:30:17.244Z,0.50
2017-11-16T06:32:44.820Z,0.60
2017-11-16T06:35:12.336Z,0.70
2017-11-16T06:37:39.942Z,0.70
2017-11-16T06:40:07.658Z,0.70
2017-11-16T06:42:35.200Z,0.70
2017-11-16T06:45:02.733Z,0.80
2017-11-16T06:47:30.964Z,0.80
2017-11-16T06:49:58.489Z,0.90
2017-11-16T06:52:25.995Z,0.80
2017-11-16T06:54:53.601Z,0.70
2017-11-16T06:57:21.124Z,0.80
2017-11-16T06:59:48.667Z,0.90
2017-11-16T07:02:16.240Z,1.00
2017-11-16T07:04:43.792Z,0.90
2017-11-16T07:07:11.312Z,1.00
2017-11-16T07:09:38.881Z,1.00
2017-11-16T07:12:06.392Z,1.00
2017-11-16T07:14:33.912Z,1.00
2017-11-16T07:17:02.256Z,1.10
2017-11-16T07:19:29.776Z,1.10
2017-11-16T07:21:57.288Z,1.00
2017-11-16T07:24:24.873Z,1.00
2017-11-16T07:26:52.401Z,1.20
2017-11-16T07:29:20.579Z,1.20
2017-11-16T07:31:48.155Z,1.30
2017-11-16T07:34:15.674Z,1.40
2017-11-16T07:36:43.206Z,1.50
2017-11-16T07:39:10.790Z,1.60
2017-11-16T07:41:38.311Z,1.50
2017-11-16T07:44:05.840Z,1.50
2017-11-16T07:46:33.416Z,1.50
2017-11-16T07:49:00.924Z,1.50
2017-11-16T07:51:28.435Z,1.50
2017-11-16T07:53:56.008Z,1.60
2017-11-16T07:56:23.534Z,1.70
2017-11-16T07:58:51.061Z,1.90
2017-11-16T08:01:18.609Z,2.00
2017-11-16T08:03:46.128Z,2.00
2017-11-16T08:06:13.410Z,1.90
2017-11-16T08:08:40.992Z,2.00
2017-11-16T08:11:08.507Z,2.00
2017-11-16T08:13:36.017Z,1.90
2017-11-16T08:16:03.564Z,2.00
2017-11-16T08:18:31.097Z,2.00
2017-11-16T08:20:58.696Z,2.10
2017-11-16T08:23:26.416Z,2.30
2017-11-16T08:25:54.048Z,2.40
2017-11-16T08:28:21.590Z,2.30
2017-11-16T08:30:49.136Z,2.30
2017-11-16T08:33:16.657Z,2.50
2017-11-16T08:35:44.168Z,2.60
2017-11-16T08:38:11.746Z,2.80
2017-11-16T08:40:39.572Z,2.80
2017-11-16T08:43:07.084Z,2.90
2017-11-16T08:45:34.656Z,2.90
2017-11-16T08:48:02.169Z,2.90
2017-11-16T08:50:29.677Z,3.00
2017-11-16T08:52:57.256Z,3.00
2017-11-16T08:55:24.768Z,3.10
2017-11-16T08:57:52.273Z,3.10
2017-11-16T09:00:19.840Z,3.20
2017-11-16T09:02:47.348Z,3.20
2017-11-16T09:05:14.865Z,3.10
2017-11-16T09:07:42.437Z,3.00
2017-11-16T09:10:10.004Z,2.90
2017-11-16T09:12:37.512Z,2.80
2017-11-16T09:15:05.081Z,3.00
2017-11-16T09:17:32.589Z,3.10
2017-11-16T09:20:00.094Z,3.20
2017-11-16T09:22:27.647Z,3.50
2017-11-16T09:24:55.159Z,3.50
2017-11-16T09:27:22.668Z,3.50
2017-11-16T09:29:50.240Z,3.60
2017-11-16T09:32:17.736Z,3.70
2017-11-16T09:34:45.244Z,3.60
2017-11-16T09:37:12.813Z,3.50
2017-11-16T09:39:41.088Z,3.50
2017-11-16T09:42:09.367Z,3.70
2017-11-16T09:44:37.704Z,3.80
2017-11-16T09:47:05.212Z,3.80
2017-11-16T09:49:32.740Z,4.10
2017-11-16T09:52:00.305Z,4.40
2017-11-16T09:54:27.893Z,4.30
2017-11-16T09:56:55.400Z,4.60
2017-11-16T09:59:22.900Z,4.70
2017-11-16T10:01:50.470Z,4.70
2017-11-16T10:04:17.977Z,4.60
2017-11-16T10:06:45.489Z,4.90
2017-11-16T10:09:13.055Z,5.10
2017-11-16T10:11:40.569Z,5.20
2017-11-16T10:14:08.080Z,5.40
2017-11-16T10:16:35.646Z,5.40
2017-11-16T10:19:03.158Z,5.30
2017-11-16T10:21:30.718Z,5.30
2017-11-16T10:23:58.280Z,5.30
2017-11-16T10:26:25.784Z,5.60
2017-11-16T10:28:53.297Z,5.60
2017-11-16T10:31:20.855Z,5.30
2017-11-16T10:33:48.356Z,5.30
2017-11-16T10:36:15.868Z,5.20
2017-11-16T10:38:44.205Z,5.10
2017-11-16T10:41:11.709Z,5.10
2017-11-16T10:43:39.212Z,5.00
2017-11-16T10:46:07.706Z,4.70
2017-11-16T10:48:35.212Z,4.70
2017-11-16T10:51:02.967Z,4.90
2017-11-16T10:53:30.536Z,4.80
2017-11-16T10:55:58.850Z,5.00
2017-11-16T10:58:26.361Z,5.00
2017-11-16T11:00:53.926Z,5.00
2017-11-16T11:03:21.436Z,5.10
2017-11-16T11:05:48.961Z,4.90
2017-11-16T11:08:16.573Z,4.70
2017-11-16T11:10:44.109Z,4.70
2017-11-16T11:13:11.622Z,4.50
2017-11-16T11:15:39.180Z,4.40
2017-11-16T11:18:06.683Z,4.50
2017-11-16T11:20:34.189Z,4.60
2017-11-16T11:23:02.419Z,4.60
2017-11-16T11:25:29.940Z,4.70
2017-11-16T11:27:58.232Z,4.60
2017-11-16T11:30:26.559Z,4.70
2017-11-16T11:32:54.073Z,4.60
2017-11-16T11:35:21.593Z,4.60
2017-11-16T11:37:49.168Z,4.40
2017-11-16T11:40:16.686Z,4.70
2017-11-16T11:42:44.193Z,4.80
2017-11-16T11:45:12.629Z,4.50
2017-11-16T11:47:40.139Z,4.50
2017-11-16T11:50:07.653Z,4.50
2017-11-16T11:52:35.213Z,4.60
2017-11-16T11:55:02.728Z,4.60
2017-11-16T11:57:30.244Z,4.90
2017-11-16T11:59:57.805Z,4.90
2017-11-16T12:02:25.308Z,4.90
2017-11-16T12:04:52.812Z,5.10
2017-11-16T12:07:20.360Z,5.10
2017-11-16T12:09:49.356Z,5.10
2017-11-16T12:12:16.942Z,5.10
2017-11-16T12:14:44.548Z,4.70
2017-11-16T12:17:12.060Z,4.90
2017-11-16T12:19:39.567Z,4.90
2017-11-16T12:22:07.122Z,4.90
2017-11-16T12:24:34.645Z,4.70
2017-11-16T12:27:02.152Z,4.50
2017-11-16T12:29:29.725Z,4.20
2017-11-16T12:31:57.234Z,4.30
2017-11-16T12:34:24.748Z,4.10
2017-11-16T12:36:52.315Z,4.30
2017-11-16T12:39:19.820Z,4.50
2017-11-16T12:41:47.329Z,4.50
2017-11-16T12:44:14.868Z,4.30
2017-11-16T12:46:42.381Z,4.20
2017-11-16T12:49:10.648Z,4.30
2017-11-16T12:51:38.499Z,4.20
2017-11-16T12:54:07.374Z,4.60
2017-11-16T12:56:34.884Z,4.60
2017-11-16T12:59:03.517Z,4.70
2017-11-16T13:01:31.028Z,4.70
2017-11-16T13:03:58.549Z,4.60
2017-11-16T13:06:26.108Z,4.10
2017-11-16T13:08:53.706Z,4.30
2017-11-16T13:11:21.952Z,4.30
2017-11-16T13:13:49.456Z,4.30
2017-11-16T13:16:17.113Z,4.40
2017-11-16T13:18:44.626Z,4.40
2017-11-16T13:21:12.128Z,4.30
2017-11-16T13:23:39.528Z,4.30
2017-11-16T13:26:07.796Z,4.30
2017-11-16T13:28:35.305Z,4.30
2017-11-16T13:31:03.725Z,4.50
2017-11-16T13:33:31.245Z,4.50
2017-11-16T13:35:58.748Z,4.50
2017-11-16T13:38:26.295Z,4.70
2017-11-16T13:40:53.900Z,4.60
2017-11-16T13:43:21.407Z,4.60
2017-11-16T13:45:49.721Z,4.20
2017-11-16T13:48:17.229Z,4.30
2017-11-16T13:50:45.500Z,4.30
2017-11-16T13:53:13.819Z,4.20
2017-11-16T13:55:41.617Z,4.20
2017-11-16T13:58:09.757Z,4.20
2017-11-16T14:00:37.339Z,4.10
2017-11-16T14:03:04.858Z,4.00
2017-11-16T14:05:32.372Z,3.90
2017-11-16T14:07:59.921Z,3.90
2017-11-16T14:10:27.432Z,4.00
2017-11-16T14:12:54.956Z,4.00
2017-11-16T14:15:22.516Z,4.00
2017-11-16T14:17:50.788Z,4.10
2017-11-16T14:20:18.288Z,4.00
2017-11-16T14:22:45.844Z,4.10
2017-11-16T14:25:13.353Z,4.10
2017-11-16T14:27:40.860Z,4.00
2017-11-16T14:30:08.434Z,3.90
2017-11-16T14:32:35.943Z,3.70
2017-11-16T14:35:03.696Z,3.70
2017-11-16T14:37:31.261Z,3.80
2017-11-16T14:39:58.768Z,3.80
2017-11-16T14:42:26.276Z,3.50
2017-11-16T14:44:54.592Z,3.50
2017-11-16T14:47:22.103Z,3.40
2017-11-16T14:49:49.616Z,3.40
2017-11-16T14:52:17.188Z,3.50
2017-11-16T14:54:44.704Z,3.60
2017-11-16T14:57:12.215Z,3.40
2017-11-16T14:59:40.369Z,3.30
2017-11-16T15:02:07.885Z,3.30
2017-11-16T15:04:35.438Z,3.20
2017-11-16T15:07:03.028Z,3.10
2017-11-16T15:09:30.725Z,3.10
2017-11-16T15:11:58.345Z,3.00
2017-11-16T15:14:27.512Z,2.90
2017-11-16T15:16:55.020Z,2.90
2017-11-16T15:19:22.536Z,2.80
2017-11-16T15:21:50.369Z,2.80
2017-11-16T15:24:17.878Z,2.80
2017-11-16T15:26:46.153Z,2.80
2017-11-16T15:29:14.472Z,2.80
2017-11-16T15:31:41.989Z,2.70
2017-11-16T15:34:09.704Z,2.90
2017-11-16T15:36:37.285Z,3.00
2017-11-16T15:39:04.805Z,3.10
2017-11-16T15:41:32.336Z,3.00
2017-11-16T15:43:59.901Z,3.00
2017-11-16T15:46:27.425Z,2.90
2017-11-16T15:48:54.949Z,2.80
2017-11-16T15:51:22.632Z,2.80
2017-11-16T15:53:50.153Z,2.70
2017-11-16T15:56:17.673Z,2.90
2017-11-16T15:58:45.217Z,2.90
2017-11-16T16:01:12.745Z,2.90
2017-11-16T16:03:40.308Z,2.90
2017-11-16T16:06:07.820Z,2.90
2017-11-16T16:08:35.341Z,3.00
2017-11-16T16:11:02.933Z,3.00
2017-11-16T16:13:30.462Z,3.00
2017-11-16T16:15:58.759Z,3.00
2017-11-16T16:18:26.330Z,3.00
2017-11-16T16:20:53.853Z,2.90
2017-11-16T16:23:21.360Z,3.00
2017-11-16T16:25:48.921Z,3.00
2017-11-16T16:28:16.440Z,3.00
2017-11-16T16:30:43.949Z,3.10
2017-11-16T16:33:11.530Z,3.00
2017-11-16T16:35:39.032Z,3.10
2017-11-16T16:38:06.549Z,3.10
2017-11-16T16:40:34.199Z,3.00
2017-11-16T16:43:01.725Z,3.10
2017-11-16T16:45:29.241Z,3.00
2017-11-16T16:47:56.805Z,3.10
2017-11-16T16:50:24.319Z,3.10
2017-11-16T16:52:51.823Z,3.10
2017-11-16T16:55:19.360Z,3.10
2017-11-16T16:57:46.896Z,3.10
2017-11-16T17:00:14.554Z,3.00
2017-11-16T17:02:42.069Z,3.00
2017-11-16T17:05:10.336Z,2.90
2017-11-16T17:07:38.944Z,2.90
2017-11-16T17:10:06.459Z,2.90
2017-11-16T17:12:33.968Z,3.00
2017-11-16T17:15:01.537Z,3.00
2017-11-16T17:17:29.040Z,3.00
2017-11-16T17:19:56.552Z,3.00
2017-11-16T17:22:24.121Z,3.00
2017-11-16T17:24:51.628Z,3.00
2017-11-16T17:27:19.128Z,2.90
2017-11-16T17:29:46.688Z,2.70
2017-11-16T17:32:14.204Z,2.70
2017-11-16T17:34:41.722Z,2.80
2017-11-16T17:37:09.360Z,2.80
2017-11-16T17:39:36.864Z,2.90
2017-11-16T17:42:04.375Z,2.90
2017-11-16T17:44:33.115Z,3.00
2017-11-16T17:47:00.625Z,2.90
2017-11-16T17:49:28.124Z,2.80
2017-11-16T17:51:56.297Z,2.80
2017-11-16T17:54:23.813Z,2.80
2017-11-16T17:56:51.323Z,2.80
2017-11-16T17:59:19.107Z,2.90
2017-11-16T18:01:46.627Z,2.80
2017-11-16T18:04:14.132Z,2.80
2017-11-16T18:06:42.283Z,2.70
2017-11-16T18:09:10.680Z,2.80
2017-11-16T18:11:38.229Z,2.70
2017-11-16T18:14:05.748Z,2.60
2017-11-16T18:16:34.124Z,2.50
2017-11-16T18:19:01.660Z,2.50
2017-11-16T18:21:29.187Z,2.60
2017-11-16T18:23:57.348Z,2.60
2017-11-16T18:26:24.871Z,2.70
2017-11-16T18:28:52.397Z,2.60
2017-11-16T18:31:20.415Z,2.60
2017-11-16T18:33:47.928Z,2.70
2017-11-16T18:36:16.112Z,2.60
2017-11-16T18:38:43.682Z,2.60
2017-11-16T18:41:11.200Z,2.60
2017-11-16T18:43:38.726Z,2.70
2017-11-16T18:46:06.276Z,2.60
2017-11-16T18:48:33.813Z,2.60
2017-11-16T18:51:01.344Z,2.60
2017-11-16T18:53:28.911Z,2.60
2017-11-16T18:55:56.703Z,2.50
2017-11-16T18:58:24.234Z,2.40
2017-11-16T19:00:51.803Z,2.40
2017-11-16T19:03:19.328Z,2.20
2017-11-16T19:05:46.853Z,2.20
2017-11-16T19:08:14.429Z,2.30
2017-11-16T19:10:42.009Z,2.20
2017-11-16T19:13:10.624Z,2.20
2017-11-16T19:15:38.191Z,2.20
2017-11-16T19:18:05.692Z,2.20
2017-11-16T19:20:33.295Z,2.20
2017-11-16T19:23:01.028Z,2.30
2017-11-16T19:25:28.707Z,2.30
2017-11-16T19:27:56.823Z,2.30
2017-11-16T19:30:24.430Z,2.30
2017-11-16T19:32:52.457Z,2.40
2017-11-16T19:35:20.741Z,2.10
2017-11-16T19:37:48.259Z,2.10
2017-11-16T19:40:16.308Z,2.10
2017-11-16T19:42:43.860Z,2.20
2017-11-16T19:45:11.359Z,2.20
2017-11-16T19:47:39.260Z,2.20
2017-11-16T19:50:06.905Z,2.10
2017-11-16T19:52:34.827Z,2.10
2017-11-16T19:55:03.105Z,2.00
2017-11-16T19:57:30.903Z,2.00
2017-11-16T19:59:58.509Z,1.90
2017-11-16T20:02:26.796Z,1.90
2017-11-16T20:04:54.761Z,1.90
2017-11-16T20:07:22.620Z,1.90
2017-11-16T20:09:50.162Z,1.80
2017-11-16T20:12:17.711Z,1.90
2017-11-16T20:14:46.042Z,1.90
2017-11-16T20:17:13.560Z,1.90
2017-11-16T20:19:41.301Z,1.90
2017-11-16T20:22:08.901Z,1.90
2017-11-16T20:24:36.417Z,1.90
2017-11-16T20:27:03.940Z,2.00
2017-11-16T20:29:32.297Z,1.80
2017-11-16T20:31:59.855Z,1.80
2017-11-16T20:34:27.391Z,1.90
2017-11-16T20:37:00.562Z,1.90
2017-11-16T20:39:28.840Z,2.00
2017-11-16T20:55:30.764Z,1.80
2017-11-16T20:57:58.268Z,1.80
2017-11-16T21:00:25.781Z,1.70
2017-11-16T21:02:54.362Z,1.60
2017-11-16T21:05:21.879Z,1.60
2017-11-16T21:07:49.406Z,1.70
2017-11-16T21:10:16.979Z,1.60
2017-11-16T21:12:44.500Z,1.70
2017-11-16T21:15:12.189Z,1.80
2017-11-16T21:17:40.119Z,1.90
2017-11-16T21:20:07.697Z,1.90
2017-11-16T21:22:35.666Z,2.00
2017-11-16T21:25:03.319Z,2.00
2017-11-16T21:27:31.382Z,1.90
2017-11-16T21:29:59.472Z,2.00
2017-11-16T21:32:28.127Z,1.90
2017-11-16T21:34:56.157Z,1.90
2017-11-16T21:37:24.702Z,1.90
2017-11-16T21:39:52.754Z,1.90
2017-11-16T21:42:20.128Z,1.80
2017-11-16T21:44:48.688Z,1.70
2017-11-16T21:47:16.212Z,1.70
2017-11-16T21:49:43.779Z,1.60
2017-11-16T21:52:11.304Z,1.50
2017-11-16T21:54:38.827Z,1.50
2017-11-16T21:57:06.384Z,1.50
2017-11-16T21:59:33.896Z,1.50
2017-11-16T22:02:01.408Z,1.50
2017-11-16T22:04:29.676Z,1.40
2017-11-16T22:06:57.511Z,1.50
2017-11-16T22:09:25.037Z,1.50
2017-11-16T22:11:52.871Z,1.40
2017-11-16T22:14:20.384Z,1.50
2017-11-16T22:16:47.909Z,1.50
2017-11-16T22:19:15.472Z,1.50
2017-11-16T22:21:42.989Z,1.40
2017-11-16T22:24:10.488Z,1.30
2017-11-16T22:26:38.060Z,1.20
2017-11-16T22:29:05.595Z,1.20
2017-11-16T22:31:33.112Z,1.10
2017-11-16T22:34:00.688Z,1.30
2017-11-16T22:36:28.256Z,1.30
2017-11-16T22:38:55.776Z,1.20
2017-11-16T22:41:23.889Z,1.10
2017-11-16T22:43:51.436Z,1.10
2017-11-16T22:46:19.716Z,1.20
2017-11-16T22:48:47.548Z,1.20
2017-11-16T22:51:15.304Z,1.20
2017-11-16T22:53:42.825Z,1.30
2017-11-16T22:56:10.491Z,1.30
2017-11-16T22:58:38.004Z,1.30
2017-11-16T23:01:06.424Z,1.10
2017-11-16T23:03:34.397Z,1.00
2017-11-16T23:06:01.913Z,1.00
2017-11-16T23:08:30.452Z,1.00
2017-11-16T23:10:57.985Z,1.00
2017-11-16T23:13:25.491Z,1.10
2017-11-16T23:15:53.073Z,1.10
2017-11-16T23:18:20.592Z,1.20
2017-11-16T23:20:48.119Z,1.30
2017-11-16T23:23:15.686Z,1.30
2017-11-16T23:25:44.298Z,1.30
2017-11-16T23:28:12.228Z,1.40
2017-11-16T23:30:39.899Z,1.40
2017-11-16T23:33:07.415Z,1.30
2017-11-16T23:35:34.932Z,1.30
2017-11-16T23:38:02.507Z,1.40
2017-11-16T23:40:30.026Z,1.40
2017-11-16T23:42:58.143Z,1.30
2017-11-16T23:45:25.896Z,1.30
2017-11-16T23:47:53.403Z,1.30
2017-11-16T23:50:20.912Z,1.20
2017-11-16T23:52:48.474Z,1.10
2017-11-16T23:55:16.573Z,1.00
2017-11-16T23:57:44.094Z,1.10
